sensor_id;sensor_type;location;lat;lon;timestamp;temperature;humidity
6627;DHT22;3349;49.830;8.748;2022-12-07T00:01:25;3.60;99.90
6627;DHT22;3349;49.830;8.748;2022-12-07T00:03:54;3.60;99.90
6627;DHT22;3349;49.830;8.748;2022-12-07T00:06:23;3.60;99.90
6627;DHT22;3349;49.830;8.748;2022-12-07T00:08:50;3.70;99.90
6627;DHT22;3349;49.830;8.748;2022-12-07T00:11:19;3.70;99.90
6627;DHT22;3349;49.830;8.748;2022-12-07T00:13:47;3.70;99.90
6627;DHT22;3349;49.830;8.748;2022-12-07T00:16:16;3.70;99.90
6627;DHT22;3349;49.830;8.748;2022-12-07T00:18:43;3.70;99.90
6627;DHT22;3349;49.830;8.748;2022-12-07T00:21:12;3.70;99.90
6627;DHT22;3349;49.830;8.748;2022-12-07T00:23:41;3.70;99.90
6627;DHT22;3349;49.830;8.748;2022-12-07T00:26:10;3.80;99.90
6627;DHT22;3349;49.830;8.748;2022-12-07T00:28:37;3.80;99.90
6627;DHT22;3349;49.830;8.748;2022-12-07T00:31:06;3.80;99.90
6627;DHT22;3349;49.830;8.748;2022-12-07T00:33:33;3.80;99.90
6627;DHT22;3349;49.830;8.748;2022-12-07T00:36:01;3.80;99.90
6627;DHT22;3349;49.830;8.748;2022-12-07T00:38:29;3.80;99.90
6627;DHT22;3349;49.830;8.748;2022-12-07T00:40:59;3.90;99.90
6627;DHT22;3349;49.830;8.748;2022-12-07T00:43:26;3.80;99.90
6627;DHT22;3349;49.830;8.748;2022-12-07T00:45:53;3.90;99.90
6627;DHT22;3349;49.830;8.748;2022-12-07T00:48:20;3.90;99.90
6627;DHT22;3349;49.830;8.748;2022-12-07T00:50:47;3.90;99.90
6627;DHT22;3349;49.830;8.748;2022-12-07T00:53:15;3.90;99.90
6627;DHT22;3349;49.830;8.748;2022-12-07T00:55:42;3.80;99.90
6627;DHT22;3349;49.830;8.748;2022-12-07T00:58:11;3.80;99.90
6627;DHT22;3349;49.830;8.748;2022-12-07T01:00:39;3.90;99.90
6627;DHT22;3349;49.830;8.748;2022-12-07T01:03:09;3.80;99.90
6627;DHT22;3349;49.830;8.748;2022-12-07T01:05:36;3.90;99.90
6627;DHT22;3349;49.830;8.748;2022-12-07T01:08:03;3.90;99.90
6627;DHT22;3349;49.830;8.748;2022-12-07T01:10:30;3.90;99.90
6627;DHT22;3349;49.830;8.748;2022-12-07T01:12:58;3.90;99.90
6627;DHT22;3349;49.830;8.748;2022-12-07T01:15:26;3.90;99.90
6627;DHT22;3349;49.830;8.748;2022-12-07T01:17:53;3.80;99.90
6627;DHT22;3349;49.830;8.748;2022-12-07T01:20:21;3.80;99.90
6627;DHT22;3349;49.830;8.748;2022-12-07T01:22:47;3.80;99.90
6627;DHT22;3349;49.830;8.748;2022-12-07T01:25:14;3.80;99.90
6627;DHT22;3349;49.830;8.748;2022-12-07T01:27:41;3.80;99.90
6627;DHT22;3349;49.830;8.748;2022-12-07T01:30:10;3.80;99.90
6627;DHT22;3349;49.830;8.748;2022-12-07T01:32:38;3.70;99.90
6627;DHT22;3349;49.830;8.748;2022-12-07T01:35:05;3.80;99.90
6627;DHT22;3349;49.830;8.748;2022-12-07T01:37:34;3.80;99.90
6627;DHT22;3349;49.830;8.748;2022-12-07T01:40:03;3.80;99.90
6627;DHT22;3349;49.830;8.748;2022-12-07T01:42:30;3.80;99.90
6627;DHT22;3349;49.830;8.748;2022-12-07T01:45:34;3.80;99.90
6627;DHT22;3349;49.830;8.748;2022-12-07T01:48:05;3.80;99.90
6627;DHT22;3349;49.830;8.748;2022-12-07T01:50:35;3.90;99.90
6627;DHT22;3349;49.830;8.748;2022-12-07T01:53:05;3.90;99.90
6627;DHT22;3349;49.830;8.748;2022-12-07T01:55:34;3.90;99.90
6627;DHT22;3349;49.830;8.748;2022-12-07T01:58:04;3.90;99.90
6627;DHT22;3349;49.830;8.748;2022-12-07T02:00:31;3.90;99.90
6627;DHT22;3349;49.830;8.748;2022-12-07T02:03:01;3.90;99.90
6627;DHT22;3349;49.830;8.748;2022-12-07T02:05:32;3.80;99.90
6627;DHT22;3349;49.830;8.748;2022-12-07T02:08:00;3.80;99.90
6627;DHT22;3349;49.830;8.748;2022-12-07T02:10:30;3.70;99.90
6627;DHT22;3349;49.830;8.748;2022-12-07T02:13:00;3.70;99.90
6627;DHT22;3349;49.830;8.748;2022-12-07T02:15:36;3.60;99.90
6627;DHT22;3349;49.830;8.748;2022-12-07T02:18:09;3.60;99.90
6627;DHT22;3349;49.830;8.748;2022-12-07T02:20:42;3.70;99.90
6627;DHT22;3349;49.830;8.748;2022-12-07T02:23:31;3.70;99.90
6627;DHT22;3349;49.830;8.748;2022-12-07T02:26:20;3.70;99.90
6627;DHT22;3349;49.830;8.748;2022-12-07T02:29:13;3.70;99.90
6627;DHT22;3349;49.830;8.748;2022-12-07T02:31:44;3.70;99.90
6627;DHT22;3349;49.830;8.748;2022-12-07T02:34:20;3.70;99.90
6627;DHT22;3349;49.830;8.748;2022-12-07T02:36:53;3.70;99.90
6627;DHT22;3349;49.830;8.748;2022-12-07T02:39:27;3.80;99.90
6627;DHT22;3349;49.830;8.748;2022-12-07T02:41:58;3.80;99.90
6627;DHT22;3349;49.830;8.748;2022-12-07T02:44:30;3.80;99.90
6627;DHT22;3349;49.830;8.748;2022-12-07T02:47:02;3.90;99.90
6627;DHT22;3349;49.830;8.748;2022-12-07T02:49:30;3.90;99.90
6627;DHT22;3349;49.830;8.748;2022-12-07T02:51:57;3.90;99.90
6627;DHT22;3349;49.830;8.748;2022-12-07T02:54:24;3.90;99.80
6627;DHT22;3349;49.830;8.748;2022-12-07T02:56:56;3.90;99.60
6627;DHT22;3349;49.830;8.748;2022-12-07T02:59:38;3.90;99.60
6627;DHT22;3349;49.830;8.748;2022-12-07T03:02:17;4.00;99.20
6627;DHT22;3349;49.830;8.748;2022-12-07T03:04:56;4.00;98.90
6627;DHT22;3349;49.830;8.748;2022-12-07T03:07:32;4.00;99.00
6627;DHT22;3349;49.830;8.748;2022-12-07T03:10:03;4.00;98.90
6627;DHT22;3349;49.830;8.748;2022-12-07T03:12:41;4.00;98.50
6627;DHT22;3349;49.830;8.748;2022-12-07T03:15:15;4.00;98.70
6627;DHT22;3349;49.830;8.748;2022-12-07T03:17:45;4.00;98.30
6627;DHT22;3349;49.830;8.748;2022-12-07T03:20:14;4.00;98.50
6627;DHT22;3349;49.830;8.748;2022-12-07T03:22:44;4.00;98.70
6627;DHT22;3349;49.830;8.748;2022-12-07T03:25:14;4.00;99.40
6627;DHT22;3349;49.830;8.748;2022-12-07T03:27:45;4.00;99.30
6627;DHT22;3349;49.830;8.748;2022-12-07T03:30:19;3.90;99.30
6627;DHT22;3349;49.830;8.748;2022-12-07T03:32:49;3.90;99.60
6627;DHT22;3349;49.830;8.748;2022-12-07T03:35:19;3.80;99.90
6627;DHT22;3349;49.830;8.748;2022-12-07T03:37:50;3.80;99.90
6627;DHT22;3349;49.830;8.748;2022-12-07T03:40:24;3.80;99.90
6627;DHT22;3349;49.830;8.748;2022-12-07T03:42:53;3.80;99.90
6627;DHT22;3349;49.830;8.748;2022-12-07T03:45:26;3.80;99.90
6627;DHT22;3349;49.830;8.748;2022-12-07T03:48:02;3.70;99.90
6627;DHT22;3349;49.830;8.748;2022-12-07T03:50:36;3.70;99.90
6627;DHT22;3349;49.830;8.748;2022-12-07T03:53:09;3.70;99.90
6627;DHT22;3349;49.830;8.748;2022-12-07T03:55:40;3.70;99.90
6627;DHT22;3349;49.830;8.748;2022-12-07T03:58:11;3.70;99.90
6627;DHT22;3349;49.830;8.748;2022-12-07T04:00:40;3.70;99.90
6627;DHT22;3349;49.830;8.748;2022-12-07T04:03:08;3.60;99.90
6627;DHT22;3349;49.830;8.748;2022-12-07T04:05:35;3.60;99.90
6627;DHT22;3349;49.830;8.748;2022-12-07T04:08:02;3.60;99.90
6627;DHT22;3349;49.830;8.748;2022-12-07T04:10:29;3.60;99.90
6627;DHT22;3349;49.830;8.748;2022-12-07T04:12:56;3.60;99.90
6627;DHT22;3349;49.830;8.748;2022-12-07T04:15:23;3.60;99.90
6627;DHT22;3349;49.830;8.748;2022-12-07T04:17:51;3.60;99.90
6627;DHT22;3349;49.830;8.748;2022-12-07T04:20:18;3.60;99.90
6627;DHT22;3349;49.830;8.748;2022-12-07T04:22:45;3.60;99.90
6627;DHT22;3349;49.830;8.748;2022-12-07T04:25:11;3.60;99.90
6627;DHT22;3349;49.830;8.748;2022-12-07T04:27:38;3.60;99.90
6627;DHT22;3349;49.830;8.748;2022-12-07T04:30:06;3.50;99.90
6627;DHT22;3349;49.830;8.748;2022-12-07T04:32:33;3.50;99.90
6627;DHT22;3349;49.830;8.748;2022-12-07T04:35:01;3.50;99.90
6627;DHT22;3349;49.830;8.748;2022-12-07T04:37:27;3.50;99.90
6627;DHT22;3349;49.830;8.748;2022-12-07T04:39:54;3.50;99.90
6627;DHT22;3349;49.830;8.748;2022-12-07T04:42:21;3.50;99.90
6627;DHT22;3349;49.830;8.748;2022-12-07T04:44:48;3.50;99.90
6627;DHT22;3349;49.830;8.748;2022-12-07T04:47:15;3.50;99.90
6627;DHT22;3349;49.830;8.748;2022-12-07T04:49:41;3.40;99.90
6627;DHT22;3349;49.830;8.748;2022-12-07T04:52:09;3.40;99.90
6627;DHT22;3349;49.830;8.748;2022-12-07T04:54:36;3.50;99.90
6627;DHT22;3349;49.830;8.748;2022-12-07T04:57:03;3.50;99.90
6627;DHT22;3349;49.830;8.748;2022-12-07T04:59:30;3.50;99.90
6627;DHT22;3349;49.830;8.748;2022-12-07T05:01:56;3.50;99.90
6627;DHT22;3349;49.830;8.748;2022-12-07T05:04:23;3.50;99.90
6627;DHT22;3349;49.830;8.748;2022-12-07T05:06:50;3.50;99.90
6627;DHT22;3349;49.830;8.748;2022-12-07T05:09:18;3.50;99.90
6627;DHT22;3349;49.830;8.748;2022-12-07T05:11:48;3.50;99.90
6627;DHT22;3349;49.830;8.748;2022-12-07T05:14:16;3.50;99.90
6627;DHT22;3349;49.830;8.748;2022-12-07T05:16:44;3.50;99.90
6627;DHT22;3349;49.830;8.748;2022-12-07T05:19:15;3.60;99.90
6627;DHT22;3349;49.830;8.748;2022-12-07T05:21:42;3.60;99.90
6627;DHT22;3349;49.830;8.748;2022-12-07T05:24:11;3.50;99.90
6627;DHT22;3349;49.830;8.748;2022-12-07T05:26:40;3.50;99.90
6627;DHT22;3349;49.830;8.748;2022-12-07T05:29:07;3.60;99.90
6627;DHT22;3349;49.830;8.748;2022-12-07T05:31:34;3.60;99.90
6627;DHT22;3349;49.830;8.748;2022-12-07T05:34:01;3.60;99.90
6627;DHT22;3349;49.830;8.748;2022-12-07T05:36:28;3.60;99.90
6627;DHT22;3349;49.830;8.748;2022-12-07T05:38:56;3.40;99.90
6627;DHT22;3349;49.830;8.748;2022-12-07T05:41:23;3.60;99.90
6627;DHT22;3349;49.830;8.748;2022-12-07T05:44:09;3.60;99.90
6627;DHT22;3349;49.830;8.748;2022-12-07T05:46:36;3.60;99.90
6627;DHT22;3349;49.830;8.748;2022-12-07T05:49:02;3.60;99.90
6627;DHT22;3349;49.830;8.748;2022-12-07T05:51:29;3.60;99.90
6627;DHT22;3349;49.830;8.748;2022-12-07T05:53:56;3.60;99.90
6627;DHT22;3349;49.830;8.748;2022-12-07T05:56:23;3.60;99.90
6627;DHT22;3349;49.830;8.748;2022-12-07T05:58:49;3.60;99.90
6627;DHT22;3349;49.830;8.748;2022-12-07T06:01:35;3.60;99.90
6627;DHT22;3349;49.830;8.748;2022-12-07T06:04:02;3.60;99.90
6627;DHT22;3349;49.830;8.748;2022-12-07T06:06:29;3.70;99.90
6627;DHT22;3349;49.830;8.748;2022-12-07T06:08:56;3.70;99.90
6627;DHT22;3349;49.830;8.748;2022-12-07T06:11:22;3.70;99.90
6627;DHT22;3349;49.830;8.748;2022-12-07T06:14:07;3.70;99.90
6627;DHT22;3349;49.830;8.748;2022-12-07T06:16:35;3.70;99.90
6627;DHT22;3349;49.830;8.748;2022-12-07T06:19:02;3.70;99.90
6627;DHT22;3349;49.830;8.748;2022-12-07T06:21:28;3.70;99.90
6627;DHT22;3349;49.830;8.748;2022-12-07T06:23:55;3.80;99.90
6627;DHT22;3349;49.830;8.748;2022-12-07T06:26:22;3.80;99.90
6627;DHT22;3349;49.830;8.748;2022-12-07T06:28:49;3.80;99.90
6627;DHT22;3349;49.830;8.748;2022-12-07T06:31:16;3.80;99.90
6627;DHT22;3349;49.830;8.748;2022-12-07T06:33:44;3.90;99.90
6627;DHT22;3349;49.830;8.748;2022-12-07T06:36:11;3.80;99.90
6627;DHT22;3349;49.830;8.748;2022-12-07T06:38:38;3.90;99.90
6627;DHT22;3349;49.830;8.748;2022-12-07T06:41:05;3.90;99.90
6627;DHT22;3349;49.830;8.748;2022-12-07T06:43:32;3.90;99.90
6627;DHT22;3349;49.830;8.748;2022-12-07T06:45:59;3.90;99.90
6627;DHT22;3349;49.830;8.748;2022-12-07T06:48:25;3.80;99.90
6627;DHT22;3349;49.830;8.748;2022-12-07T06:50:53;3.90;99.90
6627;DHT22;3349;49.830;8.748;2022-12-07T06:53:20;3.90;99.90
6627;DHT22;3349;49.830;8.748;2022-12-07T06:55:47;3.90;99.90
6627;DHT22;3349;49.830;8.748;2022-12-07T06:58:14;3.90;99.90
6627;DHT22;3349;49.830;8.748;2022-12-07T07:00:40;3.90;99.90
6627;DHT22;3349;49.830;8.748;2022-12-07T07:03:07;3.90;99.90
6627;DHT22;3349;49.830;8.748;2022-12-07T07:05:34;3.90;99.90
6627;DHT22;3349;49.830;8.748;2022-12-07T07:08:03;3.90;99.90
6627;DHT22;3349;49.830;8.748;2022-12-07T07:10:30;4.00;99.90
6627;DHT22;3349;49.830;8.748;2022-12-07T07:12:57;4.00;99.90
6627;DHT22;3349;49.830;8.748;2022-12-07T07:15:23;3.90;99.90
6627;DHT22;3349;49.830;8.748;2022-12-07T07:17:50;3.90;99.90
6627;DHT22;3349;49.830;8.748;2022-12-07T07:20:17;3.90;99.90
6627;DHT22;3349;49.830;8.748;2022-12-07T07:22:44;4.00;99.90
6627;DHT22;3349;49.830;8.748;2022-12-07T07:25:12;4.00;99.90
6627;DHT22;3349;49.830;8.748;2022-12-07T07:27:39;4.00;99.90
6627;DHT22;3349;49.830;8.748;2022-12-07T07:30:07;4.00;99.90
6627;DHT22;3349;49.830;8.748;2022-12-07T07:32:34;4.00;99.90
6627;DHT22;3349;49.830;8.748;2022-12-07T07:35:01;4.00;99.90
6627;DHT22;3349;49.830;8.748;2022-12-07T07:37:28;4.00;99.90
6627;DHT22;3349;49.830;8.748;2022-12-07T07:39:54;4.00;99.90
6627;DHT22;3349;49.830;8.748;2022-12-07T07:42:23;4.00;99.90
6627;DHT22;3349;49.830;8.748;2022-12-07T07:44:50;4.00;99.90
6627;DHT22;3349;49.830;8.748;2022-12-07T07:47:16;4.10;99.90
6627;DHT22;3349;49.830;8.748;2022-12-07T07:49:43;4.10;99.90
6627;DHT22;3349;49.830;8.748;2022-12-07T07:52:10;4.10;99.90
6627;DHT22;3349;49.830;8.748;2022-12-07T07:54:37;4.10;99.90
6627;DHT22;3349;49.830;8.748;2022-12-07T07:57:03;4.10;99.90
6627;DHT22;3349;49.830;8.748;2022-12-07T07:59:32;4.10;99.90
6627;DHT22;3349;49.830;8.748;2022-12-07T08:01:58;4.10;99.90
6627;DHT22;3349;49.830;8.748;2022-12-07T08:04:25;4.20;99.90
6627;DHT22;3349;49.830;8.748;2022-12-07T08:06:52;4.20;99.90
6627;DHT22;3349;49.830;8.748;2022-12-07T08:09:19;4.20;99.90
6627;DHT22;3349;49.830;8.748;2022-12-07T08:11:46;4.20;99.90
6627;DHT22;3349;49.830;8.748;2022-12-07T08:14:12;4.30;99.90
6627;DHT22;3349;49.830;8.748;2022-12-07T08:16:41;4.30;99.90
6627;DHT22;3349;49.830;8.748;2022-12-07T08:19:07;4.40;99.90
6627;DHT22;3349;49.830;8.748;2022-12-07T08:21:34;4.40;99.90
6627;DHT22;3349;49.830;8.748;2022-12-07T08:24:01;4.40;99.90
6627;DHT22;3349;49.830;8.748;2022-12-07T08:26:27;4.40;99.90
6627;DHT22;3349;49.830;8.748;2022-12-07T08:28:54;4.50;99.90
6627;DHT22;3349;49.830;8.748;2022-12-07T08:31:21;4.50;99.90
6627;DHT22;3349;49.830;8.748;2022-12-07T08:33:50;4.60;99.90
6627;DHT22;3349;49.830;8.748;2022-12-07T08:36:17;4.60;99.90
6627;DHT22;3349;49.830;8.748;2022-12-07T08:38:45;4.60;99.90
6627;DHT22;3349;49.830;8.748;2022-12-07T08:41:12;4.50;99.90
6627;DHT22;3349;49.830;8.748;2022-12-07T08:43:39;4.50;99.90
6627;DHT22;3349;49.830;8.748;2022-12-07T08:46:09;4.60;99.90
6627;DHT22;3349;49.830;8.748;2022-12-07T08:48:41;4.60;99.90
6627;DHT22;3349;49.830;8.748;2022-12-07T08:51:11;4.70;99.90
6627;DHT22;3349;49.830;8.748;2022-12-07T08:53:39;4.80;99.90
6627;DHT22;3349;49.830;8.748;2022-12-07T08:56:07;4.80;99.90
6627;DHT22;3349;49.830;8.748;2022-12-07T08:58:35;4.90;99.90
6627;DHT22;3349;49.830;8.748;2022-12-07T09:01:04;4.80;99.90
6627;DHT22;3349;49.830;8.748;2022-12-07T09:03:31;4.80;99.90
6627;DHT22;3349;49.830;8.748;2022-12-07T09:05:58;4.90;99.90
6627;DHT22;3349;49.830;8.748;2022-12-07T09:08:31;4.80;99.80
6627;DHT22;3349;49.830;8.748;2022-12-07T09:10:59;4.80;99.70
6627;DHT22;3349;49.830;8.748;2022-12-07T09:13:26;4.80;99.90
6627;DHT22;3349;49.830;8.748;2022-12-07T09:15:52;4.80;99.70
6627;DHT22;3349;49.830;8.748;2022-12-07T09:18:19;4.80;99.50
6627;DHT22;3349;49.830;8.748;2022-12-07T09:20:46;4.70;99.60
6627;DHT22;3349;49.830;8.748;2022-12-07T09:23:13;4.70;99.90
6627;DHT22;3349;49.830;8.748;2022-12-07T09:25:41;4.60;99.90
6627;DHT22;3349;49.830;8.748;2022-12-07T09:28:08;4.60;99.90
6627;DHT22;3349;49.830;8.748;2022-12-07T09:30:35;4.60;99.90
6627;DHT22;3349;49.830;8.748;2022-12-07T09:33:02;4.60;99.90
6627;DHT22;3349;49.830;8.748;2022-12-07T09:35:29;4.60;99.90
6627;DHT22;3349;49.830;8.748;2022-12-07T09:37:55;4.70;99.90
6627;DHT22;3349;49.830;8.748;2022-12-07T09:40:23;4.70;99.90
6627;DHT22;3349;49.830;8.748;2022-12-07T09:42:53;4.80;99.90
6627;DHT22;3349;49.830;8.748;2022-12-07T09:45:23;4.80;99.90
6627;DHT22;3349;49.830;8.748;2022-12-07T09:47:51;4.90;99.90
6627;DHT22;3349;49.830;8.748;2022-12-07T09:50:21;5.00;99.90
6627;DHT22;3349;49.830;8.748;2022-12-07T09:52:50;5.20;99.90
6627;DHT22;3349;49.830;8.748;2022-12-07T09:55:21;5.30;99.90
6627;DHT22;3349;49.830;8.748;2022-12-07T09:57:50;5.50;98.50
6627;DHT22;3349;49.830;8.748;2022-12-07T10:00:20;5.60;98.10
6627;DHT22;3349;49.830;8.748;2022-12-07T10:02:50;5.70;95.90
6627;DHT22;3349;49.830;8.748;2022-12-07T10:05:22;5.70;95.10
6627;DHT22;3349;49.830;8.748;2022-12-07T10:07:50;5.90;95.00
6627;DHT22;3349;49.830;8.748;2022-12-07T10:10:20;5.80;94.10
6627;DHT22;3349;49.830;8.748;2022-12-07T10:13:01;5.90;93.20
6627;DHT22;3349;49.830;8.748;2022-12-07T10:15:47;6.00;92.60
6627;DHT22;3349;49.830;8.748;2022-12-07T10:18:29;5.80;92.50
6627;DHT22;3349;49.830;8.748;2022-12-07T10:21:05;5.80;92.60
6627;DHT22;3349;49.830;8.748;2022-12-07T10:23:34;5.80;93.50
6627;DHT22;3349;49.830;8.748;2022-12-07T10:26:20;5.80;93.10
6627;DHT22;3349;49.830;8.748;2022-12-07T10:28:48;5.80;93.40
6627;DHT22;3349;49.830;8.748;2022-12-07T10:31:17;5.70;93.40
6627;DHT22;3349;49.830;8.748;2022-12-07T10:33:50;5.60;93.70
6627;DHT22;3349;49.830;8.748;2022-12-07T10:36:20;5.60;94.80
6627;DHT22;3349;49.830;8.748;2022-12-07T10:38:50;5.50;94.80
6627;DHT22;3349;49.830;8.748;2022-12-07T10:41:17;5.60;94.80
6627;DHT22;3349;49.830;8.748;2022-12-07T10:43:55;5.60;94.60
6627;DHT22;3349;49.830;8.748;2022-12-07T10:46:50;5.70;94.90
6627;DHT22;3349;49.830;8.748;2022-12-07T10:52:50;5.70;94.60
6627;DHT22;3349;49.830;8.748;2022-12-07T10:55:25;5.70;93.60
6627;DHT22;3349;49.830;8.748;2022-12-07T10:58:07;5.70;94.00
6627;DHT22;3349;49.830;8.748;2022-12-07T11:00:49;5.70;94.00
6627;DHT22;3349;49.830;8.748;2022-12-07T11:06:34;5.70;95.30
6627;DHT22;3349;49.830;8.748;2022-12-07T11:09:21;5.80;94.90
6627;DHT22;3349;49.830;8.748;2022-12-07T11:11:59;6.00;94.30
6627;DHT22;3349;49.830;8.748;2022-12-07T11:14:37;6.00;93.00
6627;DHT22;3349;49.830;8.748;2022-12-07T11:17:12;5.90;93.00
6627;DHT22;3349;49.830;8.748;2022-12-07T11:19:53;6.00;93.20
6627;DHT22;3349;49.830;8.748;2022-12-07T11:22:34;6.00;93.40
6627;DHT22;3349;49.830;8.748;2022-12-07T11:25:17;6.10;93.40
6627;DHT22;3349;49.830;8.748;2022-12-07T11:27:48;6.10;91.70
6627;DHT22;3349;49.830;8.748;2022-12-07T11:30:23;6.10;91.80
6627;DHT22;3349;49.830;8.748;2022-12-07T11:33:07;6.20;92.20
6627;DHT22;3349;49.830;8.748;2022-12-07T11:35:44;6.30;91.90
6627;DHT22;3349;49.830;8.748;2022-12-07T11:38:15;6.30;91.90
6627;DHT22;3349;49.830;8.748;2022-12-07T11:40:45;6.30;91.40
6627;DHT22;3349;49.830;8.748;2022-12-07T11:43:21;6.30;91.70
6627;DHT22;3349;49.830;8.748;2022-12-07T11:45:54;6.40;91.50
6627;DHT22;3349;49.830;8.748;2022-12-07T11:48:29;6.40;91.50
6627;DHT22;3349;49.830;8.748;2022-12-07T11:50:59;6.30;91.30
6627;DHT22;3349;49.830;8.748;2022-12-07T11:53:28;6.40;91.50
6627;DHT22;3349;49.830;8.748;2022-12-07T11:56:02;6.60;91.30
6627;DHT22;3349;49.830;8.748;2022-12-07T11:58:48;6.80;89.60
6627;DHT22;3349;49.830;8.748;2022-12-07T12:01:26;6.90;88.20
6627;DHT22;3349;49.830;8.748;2022-12-07T12:04:01;7.00;88.20
6627;DHT22;3349;49.830;8.748;2022-12-07T12:06:31;7.10;86.80
6627;DHT22;3349;49.830;8.748;2022-12-07T12:09:05;7.00;85.40
6627;DHT22;3349;49.830;8.748;2022-12-07T12:11:46;7.00;81.10
6627;DHT22;3349;49.830;8.748;2022-12-07T12:14:29;6.90;81.90
6627;DHT22;3349;49.830;8.748;2022-12-07T12:20:03;6.60;85.50
6627;DHT22;3349;49.830;8.748;2022-12-07T12:22:35;6.50;88.40
6627;DHT22;3349;49.830;8.748;2022-12-07T12:25:06;6.50;88.00
6627;DHT22;3349;49.830;8.748;2022-12-07T12:27:35;6.40;87.40
6627;DHT22;3349;49.830;8.748;2022-12-07T12:30:05;6.30;89.00
6627;DHT22;3349;49.830;8.748;2022-12-07T12:32:37;6.20;89.70
6627;DHT22;3349;49.830;8.748;2022-12-07T12:35:28;6.10;90.40
6627;DHT22;3349;49.830;8.748;2022-12-07T12:38:30;6.10;90.70
6627;DHT22;3349;49.830;8.748;2022-12-07T12:40:59;6.00;91.00
6627;DHT22;3349;49.830;8.748;2022-12-07T12:43:46;6.00;90.60
6627;DHT22;3349;49.830;8.748;2022-12-07T12:46:37;6.10;89.80
6627;DHT22;3349;49.830;8.748;2022-12-07T12:49:34;6.10;88.80
6627;DHT22;3349;49.830;8.748;2022-12-07T12:55:15;6.20;88.70
6627;DHT22;3349;49.830;8.748;2022-12-07T12:57:45;6.10;88.30
6627;DHT22;3349;49.830;8.748;2022-12-07T13:00:18;6.10;87.40
6627;DHT22;3349;49.830;8.748;2022-12-07T13:02:49;6.10;87.00
6627;DHT22;3349;49.830;8.748;2022-12-07T13:05:20;6.10;88.60
6627;DHT22;3349;49.830;8.748;2022-12-07T13:07:53;6.00;89.20
6627;DHT22;3349;49.830;8.748;2022-12-07T13:10:35;6.00;88.80
6627;DHT22;3349;49.830;8.748;2022-12-07T13:13:08;5.90;88.80
6627;DHT22;3349;49.830;8.748;2022-12-07T13:15:51;5.90;90.00
6627;DHT22;3349;49.830;8.748;2022-12-07T13:18:24;5.90;90.10
6627;DHT22;3349;49.830;8.748;2022-12-07T13:20:53;5.90;90.20
6627;DHT22;3349;49.830;8.748;2022-12-07T13:23:32;5.90;90.30
6627;DHT22;3349;49.830;8.748;2022-12-07T13:26:13;5.90;90.50
6627;DHT22;3349;49.830;8.748;2022-12-07T13:28:42;5.80;91.40
6627;DHT22;3349;49.830;8.748;2022-12-07T13:31:19;5.70;93.00
6627;DHT22;3349;49.830;8.748;2022-12-07T13:33:47;5.60;94.40
6627;DHT22;3349;49.830;8.748;2022-12-07T13:36:20;5.40;95.90
6627;DHT22;3349;49.830;8.748;2022-12-07T13:38:56;5.10;96.70
6627;DHT22;3349;49.830;8.748;2022-12-07T13:41:24;5.00;98.90
6627;DHT22;3349;49.830;8.748;2022-12-07T13:43:59;5.00;99.90
6627;DHT22;3349;49.830;8.748;2022-12-07T13:46:35;5.00;99.90
6627;DHT22;3349;49.830;8.748;2022-12-07T13:49:20;5.00;99.90
6627;DHT22;3349;49.830;8.748;2022-12-07T13:51:47;5.10;99.90
6627;DHT22;3349;49.830;8.748;2022-12-07T13:54:16;5.00;99.90
6627;DHT22;3349;49.830;8.748;2022-12-07T13:56:43;5.00;99.90
6627;DHT22;3349;49.830;8.748;2022-12-07T13:59:16;4.90;99.90
6627;DHT22;3349;49.830;8.748;2022-12-07T14:01:46;4.90;99.90
6627;DHT22;3349;49.830;8.748;2022-12-07T14:04:18;4.80;99.90
6627;DHT22;3349;49.830;8.748;2022-12-07T14:06:49;4.70;99.90
6627;DHT22;3349;49.830;8.748;2022-12-07T14:09:20;4.70;99.90
6627;DHT22;3349;49.830;8.748;2022-12-07T14:11:49;4.70;99.90
6627;DHT22;3349;49.830;8.748;2022-12-07T14:14:19;4.60;99.90
6627;DHT22;3349;49.830;8.748;2022-12-07T14:16:59;4.60;99.90
6627;DHT22;3349;49.830;8.748;2022-12-07T14:19:47;4.60;99.90
6627;DHT22;3349;49.830;8.748;2022-12-07T14:22:31;4.50;99.90
6627;DHT22;3349;49.830;8.748;2022-12-07T14:25:09;4.50;99.90
6627;DHT22;3349;49.830;8.748;2022-12-07T14:27:38;4.50;99.90
6627;DHT22;3349;49.830;8.748;2022-12-07T14:30:14;4.50;99.90
6627;DHT22;3349;49.830;8.748;2022-12-07T14:32:42;4.50;99.90
6627;DHT22;3349;49.830;8.748;2022-12-07T14:35:15;4.60;99.90
6627;DHT22;3349;49.830;8.748;2022-12-07T14:37:44;4.60;99.90
6627;DHT22;3349;49.830;8.748;2022-12-07T14:40:15;4.60;99.90
6627;DHT22;3349;49.830;8.748;2022-12-07T14:42:43;4.60;99.90
6627;DHT22;3349;49.830;8.748;2022-12-07T14:45:14;4.60;99.90
6627;DHT22;3349;49.830;8.748;2022-12-07T14:47:42;4.60;99.90
6627;DHT22;3349;49.830;8.748;2022-12-07T14:50:12;4.70;99.90
6627;DHT22;3349;49.830;8.748;2022-12-07T14:52:39;4.70;99.90
6627;DHT22;3349;49.830;8.748;2022-12-07T14:55:16;4.70;99.90
6627;DHT22;3349;49.830;8.748;2022-12-07T14:57:44;4.80;99.90
6627;DHT22;3349;49.830;8.748;2022-12-07T15:00:15;4.70;99.90
6627;DHT22;3349;49.830;8.748;2022-12-07T15:02:42;4.80;99.90
6627;DHT22;3349;49.830;8.748;2022-12-07T15:05:09;4.90;99.90
6627;DHT22;3349;49.830;8.748;2022-12-07T15:07:36;4.90;99.90
6627;DHT22;3349;49.830;8.748;2022-12-07T15:10:04;4.90;99.90
6627;DHT22;3349;49.830;8.748;2022-12-07T15:12:33;5.00;99.90
6627;DHT22;3349;49.830;8.748;2022-12-07T15:15:00;4.90;99.90
6627;DHT22;3349;49.830;8.748;2022-12-07T15:17:27;5.00;99.90
6627;DHT22;3349;49.830;8.748;2022-12-07T15:19:54;4.90;99.90
6627;DHT22;3349;49.830;8.748;2022-12-07T15:22:21;5.00;99.90
6627;DHT22;3349;49.830;8.748;2022-12-07T15:24:47;5.00;99.90
6627;DHT22;3349;49.830;8.748;2022-12-07T15:27:14;5.10;99.90
6627;DHT22;3349;49.830;8.748;2022-12-07T15:29:42;5.00;99.90
6627;DHT22;3349;49.830;8.748;2022-12-07T15:32:09;5.00;99.90
6627;DHT22;3349;49.830;8.748;2022-12-07T15:34:36;5.00;99.90
6627;DHT22;3349;49.830;8.748;2022-12-07T15:37:03;5.00;99.90
6627;DHT22;3349;49.830;8.748;2022-12-07T15:39:29;5.00;99.90
6627;DHT22;3349;49.830;8.748;2022-12-07T15:41:56;5.00;99.90
6627;DHT22;3349;49.830;8.748;2022-12-07T15:44:23;5.00;99.90
6627;DHT22;3349;49.830;8.748;2022-12-07T15:47:08;5.00;99.90
6627;DHT22;3349;49.830;8.748;2022-12-07T15:49:35;5.00;99.90
6627;DHT22;3349;49.830;8.748;2022-12-07T15:52:02;5.00;99.90
6627;DHT22;3349;49.830;8.748;2022-12-07T15:54:30;4.90;99.90
6627;DHT22;3349;49.830;8.748;2022-12-07T15:56:57;4.90;99.90
6627;DHT22;3349;49.830;8.748;2022-12-07T15:59:26;4.90;99.90
6627;DHT22;3349;49.830;8.748;2022-12-07T16:01:53;4.90;99.90
6627;DHT22;3349;49.830;8.748;2022-12-07T16:04:22;4.90;99.90
6627;DHT22;3349;49.830;8.748;2022-12-07T16:06:48;4.90;99.90
6627;DHT22;3349;49.830;8.748;2022-12-07T16:09:16;4.80;99.90
6627;DHT22;3349;49.830;8.748;2022-12-07T16:11:43;4.70;99.90
6627;DHT22;3349;49.830;8.748;2022-12-07T16:14:10;4.70;99.90
6627;DHT22;3349;49.830;8.748;2022-12-07T16:16:36;4.70;99.90
6627;DHT22;3349;49.830;8.748;2022-12-07T16:19:05;4.60;99.90
6627;DHT22;3349;49.830;8.748;2022-12-07T16:21:35;4.60;99.90
6627;DHT22;3349;49.830;8.748;2022-12-07T16:24:02;4.70;99.90
6627;DHT22;3349;49.830;8.748;2022-12-07T16:26:30;4.70;99.90
6627;DHT22;3349;49.830;8.748;2022-12-07T16:28:58;4.70;99.90
6627;DHT22;3349;49.830;8.748;2022-12-07T16:31:26;4.70;99.90
6627;DHT22;3349;49.830;8.748;2022-12-07T16:33:55;4.60;99.90
6627;DHT22;3349;49.830;8.748;2022-12-07T16:36:23;4.60;99.90
6627;DHT22;3349;49.830;8.748;2022-12-07T16:38:52;4.60;99.90
6627;DHT22;3349;49.830;8.748;2022-12-07T16:41:19;4.60;99.90
6627;DHT22;3349;49.830;8.748;2022-12-07T16:43:46;4.60;99.90
6627;DHT22;3349;49.830;8.748;2022-12-07T16:46:13;4.70;99.90
6627;DHT22;3349;49.830;8.748;2022-12-07T16:48:41;4.60;99.90
6627;DHT22;3349;49.830;8.748;2022-12-07T16:51:09;4.60;99.90